createdAt,value
2022-10-17T00:02:13.671Z,66.19
2022-10-17T00:04:40.485Z,66.17
2022-10-17T00:07:07.326Z,66.34
2022-10-17T00:09:34.142Z,66.00
2022-10-17T00:12:02.619Z,66.40
2022-10-17T00:14:29.451Z,66.42
2022-10-17T00:16:56.252Z,65.98
2022-10-17T00:19:23.093Z,66.09
2022-10-17T00:21:50.240Z,65.94
2022-10-17T00:24:17.130Z,65.62
2022-10-17T00:26:43.957Z,65.61
2022-10-17T00:29:10.808Z,65.90
2022-10-17T00:31:37.875Z,65.75
2022-10-17T00:34:05.022Z,65.14
2022-10-17T00:36:31.812Z,65.10
2022-10-17T00:38:59.521Z,65.17
2022-10-17T00:41:30.492Z,65.65
2022-10-17T00:44:05.260Z,66.11
2022-10-17T00:46:38.759Z,66.14
2022-10-17T00:49:11.631Z,66.61
2022-10-17T00:51:52.630Z,66.98
2022-10-17T00:54:23.152Z,66.98
2022-10-17T00:56:51.186Z,66.76
2022-10-17T00:59:21.843Z,67.22
2022-10-17T01:02:07.006Z,66.99
2022-10-17T01:04:33.929Z,67.07
2022-10-17T01:07:00.706Z,66.75
2022-10-17T01:09:27.683Z,66.42
2022-10-17T01:12:13.275Z,66.25
2022-10-17T01:14:52.240Z,66.14
2022-10-17T01:17:57.688Z,66.47
2022-10-17T01:20:42.917Z,66.64
2022-10-17T01:23:33.560Z,66.71
2022-10-17T01:26:13.049Z,67.20
2022-10-17T01:28:48.941Z,67.25
2022-10-17T01:31:20.362Z,67.21
2022-10-17T01:34:04.967Z,67.74
2022-10-17T01:36:50.798Z,67.53
2022-10-17T01:39:51.280Z,67.03
2022-10-17T01:42:27.141Z,66.95
2022-10-17T01:45:13.252Z,67.09
2022-10-17T01:47:42.376Z,67.04
2022-10-17T01:50:16.989Z,67.08
2022-10-17T01:52:53.142Z,67.70
2022-10-17T01:55:25.302Z,67.11
2022-10-17T01:57:58.307Z,67.24
2022-10-17T02:00:27.736Z,67.32
2022-10-17T02:03:02.647Z,66.82
2022-10-17T02:05:35.623Z,66.47
2022-10-17T02:08:03.107Z,66.49
2022-10-17T02:10:41.859Z,66.52
2022-10-17T02:13:32.862Z,66.29
2022-10-17T02:16:33.012Z,66.60
2022-10-17T02:19:28.225Z,66.84
2022-10-17T02:22:10.539Z,67.16
2022-10-17T02:24:53.451Z,67.30
2022-10-17T02:27:32.475Z,67.29
2022-10-17T02:30:26.947Z,67.80
2022-10-17T02:33:00.802Z,67.62
2022-10-17T02:35:32.883Z,67.54
2022-10-17T02:38:00.782Z,67.34
2022-10-17T02:40:31.724Z,67.66
2022-10-17T02:43:01.018Z,67.95
2022-10-17T02:45:35.870Z,68.33
2022-10-17T02:48:34.052Z,68.20
2022-10-17T02:51:26.628Z,68.73
2022-10-17T02:54:05.388Z,68.36
2022-10-17T02:56:39.693Z,68.40
2022-10-17T02:59:10.032Z,68.05
2022-10-17T03:01:38.206Z,68.48
2022-10-17T03:04:10.533Z,68.06
2022-10-17T03:06:38.091Z,68.64
2022-10-17T03:09:05.381Z,68.47
2022-10-17T03:11:32.369Z,68.10
2022-10-17T03:13:59.249Z,68.15
2022-10-17T03:16:26.900Z,68.01
2022-10-17T03:18:53.752Z,67.92
2022-10-17T03:21:20.714Z,68.49
2022-10-17T03:23:47.740Z,68.14
2022-10-17T03:26:15.625Z,68.09
2022-10-17T03:28:43.227Z,68.27
2022-10-17T03:31:15.906Z,68.40
2022-10-17T03:33:43.892Z,68.41
2022-10-17T03:36:16.561Z,68.53
2022-10-17T03:38:46.320Z,68.63
2022-10-17T03:41:13.236Z,68.78
2022-10-17T03:43:40.180Z,69.06
2022-10-17T03:46:07.959Z,68.62
2022-10-17T03:48:36.141Z,68.70
2022-10-17T03:51:07.159Z,68.84
2022-10-17T03:53:38.544Z,68.71
2022-10-17T03:56:17.326Z,68.96
2022-10-17T03:58:46.828Z,68.79
2022-10-17T04:01:17.281Z,69.04
2022-10-17T04:03:52.778Z,68.47
2022-10-17T04:06:21.087Z,68.86
2022-10-17T04:08:48.742Z,68.84
2022-10-17T04:11:25.802Z,68.46
2022-10-17T04:13:59.284Z,68.67
2022-10-17T04:16:27.786Z,68.88
2022-10-17T04:19:04.058Z,68.75
2022-10-17T04:21:36.826Z,68.74
2022-10-17T04:24:06.849Z,68.70
2022-10-17T04:26:44.151Z,69.09
2022-10-17T04:29:11.568Z,68.52
2022-10-17T04:31:39.709Z,68.64
2022-10-17T04:34:32.224Z,68.67
2022-10-17T04:36:59.237Z,68.47
2022-10-17T04:39:26.903Z,68.74
2022-10-17T04:41:54.061Z,68.87
2022-10-17T04:44:21.431Z,68.42
2022-10-17T04:46:51.617Z,68.89
2022-10-17T04:49:19.984Z,68.61
2022-10-17T04:51:51.160Z,69.11
2022-10-17T04:54:24.007Z,68.90
2022-10-17T04:57:01.779Z,68.81
2022-10-17T04:59:29.878Z,69.26
2022-10-17T05:02:11.260Z,69.51
2022-10-17T05:04:38.496Z,69.11
2022-10-17T05:07:05.431Z,69.26
2022-10-17T05:09:38.211Z,69.58
2022-10-17T05:12:09.464Z,69.02
2022-10-17T05:14:39.576Z,69.00
2022-10-17T05:17:06.579Z,68.81
2022-10-17T05:19:33.481Z,68.55
2022-10-17T05:22:00.613Z,68.93
2022-10-17T05:24:28.711Z,68.80
2022-10-17T05:26:55.476Z,69.34
2022-10-17T05:29:22.695Z,69.30
2022-10-17T05:31:54.912Z,69.33
2022-10-17T05:34:24.513Z,69.71
2022-10-17T05:36:51.434Z,70.15
2022-10-17T05:39:23.288Z,70.25
2022-10-17T05:41:52.456Z,70.73
2022-10-17T05:44:19.253Z,71.76
2022-10-17T05:46:52.362Z,71.70
2022-10-17T05:49:32.601Z,71.54
2022-10-17T05:52:06.926Z,71.80
2022-10-17T05:54:44.074Z,72.63
2022-10-17T05:57:11.969Z,72.34
2022-10-17T05:59:40.749Z,72.60
2022-10-17T06:02:13.105Z,71.96
2022-10-17T06:04:45.598Z,71.89
2022-10-17T06:07:13.670Z,71.45
2022-10-17T06:09:42.485Z,71.08
2022-10-17T06:12:09.438Z,70.21
2022-10-17T06:14:36.356Z,69.74
2022-10-17T06:17:05.908Z,69.38
2022-10-17T06:19:32.824Z,68.49
2022-10-17T06:21:59.778Z,68.02
2022-10-17T06:24:28.255Z,67.11
2022-10-17T06:26:55.414Z,66.48
2022-10-17T06:29:22.838Z,66.78
2022-10-17T06:31:52.549Z,66.19
2022-10-17T06:34:20.427Z,64.59
2022-10-17T06:36:48.259Z,64.15
2022-10-17T06:39:15.857Z,63.84
2022-10-17T06:42:05.590Z,64.30
2022-10-17T06:44:48.639Z,63.94
2022-10-17T06:47:35.532Z,63.51
2022-10-17T06:50:10.797Z,62.13
2022-10-17T06:52:53.700Z,62.71
2022-10-17T06:55:39.474Z,62.91
2022-10-17T06:58:15.808Z,61.84
2022-10-17T07:03:43.752Z,62.34
2022-10-17T07:06:12.866Z,62.08
2022-10-17T07:08:44.216Z,61.68
2022-10-17T07:11:13.333Z,61.39
2022-10-17T07:13:40.294Z,61.49
2022-10-17T07:16:07.612Z,61.54
2022-10-17T07:18:36.962Z,61.06
2022-10-17T07:21:05.143Z,60.79
2022-10-17T07:23:34.402Z,60.69
2022-10-17T07:26:03.199Z,60.84
2022-10-17T07:28:30.577Z,60.49
2022-10-17T07:31:06.705Z,60.54
2022-10-17T07:33:34.008Z,60.42
2022-10-17T07:36:02.759Z,60.40
2022-10-17T07:38:33.569Z,61.44
2022-10-17T07:41:02.748Z,61.24
2022-10-17T07:43:30.892Z,61.11
2022-10-17T07:46:01.356Z,61.12
2022-10-17T07:48:28.810Z,61.31
2022-10-17T07:50:56.366Z,61.81
2022-10-17T07:53:23.487Z,61.06
2022-10-17T07:55:51.409Z,61.09
2022-10-17T07:58:18.729Z,61.10
2022-10-17T08:00:48.504Z,61.11
2022-10-17T08:03:15.637Z,60.48
2022-10-17T08:05:42.468Z,60.67
2022-10-17T08:08:10.016Z,60.04
2022-10-17T08:10:37.797Z,60.27
2022-10-17T08:13:04.649Z,59.98
2022-10-17T08:15:32.143Z,60.22
2022-10-17T08:17:59.687Z,60.04
2022-10-17T08:20:26.984Z,60.75
2022-10-17T08:22:55.254Z,60.38
2022-10-17T08:25:22.696Z,60.81
2022-10-17T08:27:49.934Z,60.28
2022-10-17T08:30:17.511Z,59.56
2022-10-17T08:32:44.649Z,59.82
2022-10-17T08:35:12.074Z,60.44
2022-10-17T08:37:38.876Z,59.65
2022-10-17T08:40:06.892Z,59.19
2022-10-17T08:42:56.420Z,59.94
2022-10-17T08:46:00.397Z,60.17
2022-10-17T08:48:30.249Z,59.10
2022-10-17T08:51:09.284Z,60.65
2022-10-17T08:53:45.484Z,59.52
2022-10-17T08:56:30.303Z,59.67
2022-10-17T08:59:13.924Z,59.46
2022-10-17T09:01:48.431Z,60.04
2022-10-17T09:04:57.473Z,60.00
2022-10-17T09:07:33.864Z,60.49
2022-10-17T09:10:09.957Z,60.55
2022-10-17T09:12:52.104Z,61.03
2022-10-17T09:15:45.327Z,61.13
2022-10-17T09:18:29.568Z,60.83
2022-10-17T09:21:09.139Z,60.75
2022-10-17T09:23:47.580Z,61.00
2022-10-17T09:26:15.356Z,60.66
2022-10-17T09:28:43.533Z,59.20
2022-10-17T09:31:22.048Z,58.70
2022-10-17T09:33:55.267Z,58.37
2022-10-17T09:36:35.774Z,58.29
2022-10-17T09:39:15.187Z,57.96
2022-10-17T09:41:53.041Z,59.45
2022-10-17T09:44:23.208Z,58.70
2022-10-17T09:47:09.774Z,58.47
2022-10-17T09:49:42.936Z,58.16
2022-10-17T09:52:48.598Z,58.20
2022-10-17T09:55:48.810Z,57.55
2022-10-17T09:58:16.024Z,57.46
2022-10-17T10:00:45.819Z,57.68
2022-10-17T10:03:17.629Z,57.68
2022-10-17T10:05:59.997Z,57.55
2022-10-17T10:08:32.448Z,57.97
2022-10-17T10:11:05.336Z,57.53
2022-10-17T10:13:34.071Z,57.22
2022-10-17T10:16:33.634Z,57.77
2022-10-17T10:19:03.620Z,57.43
2022-10-17T10:21:33.453Z,57.14
2022-10-17T10:24:14.971Z,56.78
2022-10-17T10:26:47.603Z,56.09
2022-10-17T10:29:28.931Z,56.32
2022-10-17T10:31:56.593Z,55.15
2022-10-17T10:34:25.993Z,56.00
2022-10-17T10:37:02.832Z,56.14
2022-10-17T10:40:03.923Z,55.35
2022-10-17T10:42:37.426Z,55.47
2022-10-17T10:45:29.280Z,55.53
2022-10-17T10:48:19.844Z,55.22
2022-10-17T10:50:52.742Z,54.53
2022-10-17T10:53:41.062Z,54.92
2022-10-17T10:56:20.504Z,54.36
2022-10-17T10:58:56.370Z,54.51
2022-10-17T11:01:34.175Z,54.39
2022-10-17T11:04:10.011Z,54.02
2022-10-17T11:06:40.157Z,53.76
2022-10-17T11:09:24.695Z,54.27
2022-10-17T11:12:24.076Z,54.00
2022-10-17T11:15:09.615Z,53.43
2022-10-17T11:17:45.387Z,53.66
2022-10-17T11:20:32.236Z,53.51
2022-10-17T11:23:20.800Z,53.56
2022-10-17T11:25:51.928Z,53.43
2022-10-17T11:28:21.631Z,53.67
2022-10-17T11:30:56.084Z,53.41
2022-10-17T11:33:39.563Z,53.76
2022-10-17T11:36:09.875Z,53.61
2022-10-17T11:38:51.171Z,53.31
2022-10-17T11:41:43.226Z,53.22
2022-10-17T11:44:29.379Z,53.92
2022-10-17T11:47:31.640Z,53.43
2022-10-17T11:53:20.522Z,52.34
2022-10-17T11:55:48.191Z,53.06
2022-10-17T11:58:38.526Z,52.44
2022-10-17T12:01:27.382Z,52.45
2022-10-17T12:04:12.904Z,52.55
2022-10-17T12:07:03.115Z,52.31
2022-10-17T12:09:38.672Z,52.13
2022-10-17T12:12:05.910Z,52.35
2022-10-17T12:14:48.119Z,51.92
2022-10-17T12:17:44.675Z,51.25
2022-10-17T12:20:21.347Z,50.78
2022-10-17T12:22:52.641Z,51.02
2022-10-17T12:25:33.839Z,51.47
2022-10-17T12:28:11.312Z,52.35
2022-10-17T12:30:52.459Z,51.87
2022-10-17T12:33:27.373Z,51.75
2022-10-17T12:36:22.237Z,51.48
2022-10-17T12:38:52.107Z,51.02
2022-10-17T12:41:39.384Z,51.05
2022-10-17T12:44:15.663Z,51.59
2022-10-17T12:46:55.653Z,51.43
2022-10-17T12:49:45.730Z,51.32
2022-10-17T12:52:32.869Z,51.07
2022-10-17T12:55:14.067Z,51.81
2022-10-17T12:57:47.358Z,51.65
2022-10-17T13:00:17.807Z,51.05
2022-10-17T13:02:45.182Z,50.95
2022-10-17T13:05:19.387Z,51.11
2022-10-17T13:07:49.151Z,50.89
2022-10-17T13:10:22.667Z,50.94
2022-10-17T13:12:53.265Z,50.91
2022-10-17T13:15:21.716Z,50.55
2022-10-17T13:17:56.908Z,49.70
2022-10-17T13:20:29.118Z,49.84
2022-10-17T13:22:59.235Z,49.67
2022-10-17T13:25:27.714Z,49.40
2022-10-17T13:28:05.516Z,50.20
2022-10-17T13:30:35.238Z,50.33
2022-10-17T13:33:03.227Z,49.93
2022-10-17T13:35:59.059Z,50.24
2022-10-17T13:38:28.334Z,50.20
2022-10-17T13:41:05.870Z,50.11
2022-10-17T13:43:43.113Z,50.40
2022-10-17T13:46:36.686Z,49.95
2022-10-17T13:49:16.212Z,50.13
2022-10-17T13:51:45.495Z,49.88
2022-10-17T13:54:37.174Z,49.59
2022-10-17T13:57:05.480Z,49.58
2022-10-17T13:59:39.072Z,49.78
2022-10-17T14:02:13.513Z,49.71
2022-10-17T14:05:11.655Z,49.51
2022-10-17T14:08:13.449Z,49.94
2022-10-17T14:10:43.404Z,50.37
2022-10-17T14:13:28.065Z,50.23
2022-10-17T14:15:56.765Z,50.28
2022-10-17T14:18:33.423Z,50.16
2022-10-17T14:21:37.183Z,50.80
2022-10-17T14:23:53.459Z,50.38
2022-10-17T14:26:24.156Z,50.65
2022-10-17T14:29:06.234Z,50.91
2022-10-17T14:31:35.803Z,51.04
2022-10-17T14:34:27.354Z,51.26
2022-10-17T14:37:37.463Z,51.16
2022-10-17T14:40:25.302Z,51.42
2022-10-17T14:43:21.911Z,51.79
2022-10-17T14:46:14.555Z,52.00
2022-10-17T14:49:14.436Z,52.06
2022-10-17T14:52:33.388Z,52.74
2022-10-17T14:55:25.401Z,53.08
2022-10-17T14:58:27.930Z,53.40
2022-10-17T15:01:13.281Z,53.64
2022-10-17T15:03:58.777Z,53.70
2022-10-17T15:06:45.144Z,53.75
2022-10-17T15:09:31.246Z,53.95
2022-10-17T15:12:22.185Z,54.16
2022-10-17T15:15:08.052Z,54.52
2022-10-17T15:17:53.683Z,54.46
2022-10-17T15:20:39.478Z,54.75
2022-10-17T15:23:25.286Z,54.80
2022-10-17T15:26:19.136Z,55.32
2022-10-17T15:29:05.015Z,55.39
2022-10-17T15:31:50.841Z,55.64
2022-10-17T15:34:36.545Z,55.38
2022-10-17T15:37:25.054Z,55.77
2022-10-17T15:40:16.181Z,56.06
2022-10-17T15:43:01.548Z,56.09
2022-10-17T15:45:47.338Z,56.36
2022-10-17T15:48:32.803Z,56.25
2022-10-17T15:51:19.442Z,56.27
2022-10-17T15:54:06.239Z,56.46
2022-10-17T15:56:54.904Z,56.90
2022-10-17T15:59:40.684Z,56.87
2022-10-17T16:02:26.798Z,57.02
2022-10-17T16:05:25.666Z,57.21
2022-10-17T16:08:11.353Z,57.71
2022-10-17T16:10:56.682Z,57.83
2022-10-17T16:13:44.781Z,58.11
2022-10-17T16:16:30.522Z,58.76
2022-10-17T16:19:16.639Z,58.98
2022-10-17T16:22:04.560Z,59.24
2022-10-17T16:24:50.505Z,59.55
2022-10-17T16:27:37.271Z,59.51
2022-10-17T16:30:24.797Z,59.66
2022-10-17T16:33:10.808Z,59.64
2022-10-17T16:35:57.158Z,59.96
2022-10-17T16:38:43.359Z,60.20
2022-10-17T16:41:32.367Z,60.52
2022-10-17T16:44:18.338Z,61.53
2022-10-17T16:47:03.836Z,62.12
2022-10-17T16:49:49.238Z,62.55
2022-10-17T16:52:38.406Z,63.15
2022-10-17T16:55:25.923Z,63.41
2022-10-17T16:58:13.858Z,63.24
2022-10-17T17:01:05.571Z,63.46
2022-10-17T17:03:53.056Z,63.32
2022-10-17T17:06:38.572Z,63.79
2022-10-17T17:09:23.940Z,64.12
2022-10-17T17:12:09.427Z,64.26
2022-10-17T17:14:55.299Z,64.77
2022-10-17T17:17:52.429Z,64.83
2022-10-17T17:20:41.730Z,64.48
2022-10-17T17:23:28.037Z,64.84
2022-10-17T17:26:20.360Z,64.60
2022-10-17T17:29:07.297Z,64.87
2022-10-17T17:31:53.804Z,65.54
2022-10-17T17:34:39.215Z,65.85
2022-10-17T17:37:30.592Z,65.84
2022-10-17T17:40:20.013Z,66.02
2022-10-17T17:43:05.959Z,65.59
2022-10-17T17:45:51.664Z,65.22
2022-10-17T17:48:38.536Z,65.13
2022-10-17T17:51:29.037Z,65.16
2022-10-17T17:54:14.945Z,64.99
2022-10-17T17:57:00.418Z,64.72
2022-10-17T17:59:46.050Z,64.32
2022-10-17T18:02:31.678Z,64.28
2022-10-17T18:05:17.642Z,63.97
2022-10-17T18:08:05.550Z,64.55
2022-10-17T18:10:54.952Z,64.31
2022-10-17T18:13:40.487Z,64.29
2022-10-17T18:16:32.522Z,64.28
2022-10-17T18:19:43.980Z,64.50
2022-10-17T18:22:32.521Z,64.52
2022-10-17T18:25:19.826Z,65.10
2022-10-17T18:28:06.549Z,65.45
2022-10-17T18:30:52.330Z,65.69
2022-10-17T18:33:39.421Z,66.25
2022-10-17T18:36:27.091Z,66.38
2022-10-17T18:39:15.604Z,66.74
2022-10-17T18:42:05.620Z,66.83
2022-10-17T18:44:54.532Z,66.69
2022-10-17T18:47:48.799Z,66.71
2022-10-17T18:50:40.264Z,66.67
2022-10-17T18:53:27.671Z,66.60
2022-10-17T18:56:15.212Z,66.64
2022-10-17T18:59:01.936Z,65.91
2022-10-17T19:01:47.973Z,65.84
2022-10-17T19:04:33.928Z,65.74
2022-10-17T19:07:20.390Z,65.26
2022-10-17T19:10:06.368Z,65.05
2022-10-17T19:12:54.055Z,65.38
2022-10-17T19:15:40.096Z,65.48
2022-10-17T19:18:25.597Z,65.89
2022-10-17T19:21:11.820Z,66.02
2022-10-17T19:24:00.128Z,65.69
2022-10-17T19:26:47.664Z,65.54
2022-10-17T19:29:33.134Z,65.63
2022-10-17T19:32:20.754Z,65.75
2022-10-17T19:35:11.785Z,65.64
2022-10-17T19:37:57.876Z,65.47
2022-10-17T19:40:44.419Z,65.05
2022-10-17T19:43:29.759Z,65.40
2022-10-17T19:46:20.295Z,65.21
2022-10-17T19:49:07.791Z,65.39
2022-10-17T19:51:53.764Z,65.56
2022-10-17T19:54:40.696Z,65.66
2022-10-17T19:57:26.564Z,65.83
2022-10-17T20:00:13.169Z,65.90
2022-10-17T20:02:59.637Z,65.89
2022-10-17T20:05:47.718Z,65.67
2022-10-17T20:08:34.555Z,65.49
2022-10-17T20:11:23.207Z,65.43
2022-10-17T20:14:08.904Z,65.54
2022-10-17T20:16:54.449Z,65.71
2022-10-17T20:19:39.667Z,65.56
2022-10-17T20:22:25.039Z,65.92
2022-10-17T20:25:10.908Z,66.17
2022-10-17T20:27:56.410Z,66.69
2022-10-17T20:30:46.186Z,66.90
2022-10-17T20:33:32.444Z,67.48
2022-10-17T20:36:23.278Z,67.43
2022-10-17T20:39:12.038Z,66.96
2022-10-17T20:41:57.549Z,66.42
2022-10-17T20:44:46.050Z,66.06
2022-10-17T20:47:45.937Z,66.16
2022-10-17T20:50:37.961Z,66.57
2022-10-17T20:53:36.673Z,66.10
2022-10-17T20:56:25.317Z,66.00
2022-10-17T20:59:17.225Z,66.37
2022-10-17T21:02:03.883Z,66.65
2022-10-17T21:04:50.061Z,66.46
2022-10-17T21:07:35.422Z,66.61
2022-10-17T21:10:34.957Z,66.71
2022-10-17T21:13:21.219Z,66.82
2022-10-17T21:16:12.144Z,66.81
2022-10-17T21:18:58.315Z,66.75
2022-10-17T21:21:46.046Z,67.12
2022-10-17T21:24:31.705Z,67.56
2022-10-17T21:27:19.328Z,68.09
2022-10-17T21:30:05.252Z,67.97
2022-10-17T21:32:53.987Z,67.93
2022-10-17T21:35:39.627Z,68.09
2022-10-17T21:38:25.602Z,67.47
2022-10-17T21:41:11.889Z,67.12
2022-10-17T21:44:00.855Z,66.89
2022-10-17T21:46:47.093Z,66.97
2022-10-17T21:49:34.048Z,66.59
2022-10-17T21:52:19.431Z,66.84
2022-10-17T21:55:05.207Z,66.88
2022-10-17T21:57:51.525Z,66.90
2022-10-17T22:00:37.167Z,66.92
2022-10-17T22:03:22.425Z,67.15
2022-10-17T22:06:34.532Z,67.35
2022-10-17T22:09:20.922Z,67.77
2022-10-17T22:12:06.412Z,67.87
2022-10-17T22:14:51.759Z,68.18
2022-10-17T22:17:37.141Z,67.97
2022-10-17T22:20:23.309Z,68.31
2022-10-17T22:23:08.785Z,68.56
2022-10-17T22:25:55.230Z,68.92
2022-10-17T22:28:41.588Z,68.84
2022-10-17T22:31:27.042Z,69.29
2022-10-17T22:34:14.899Z,69.62
2022-10-17T22:37:00.646Z,70.04
2022-10-17T22:39:46.135Z,69.89
2022-10-17T22:42:34.405Z,69.80
2022-10-17T22:45:20.035Z,70.07
2022-10-17T22:48:06.481Z,69.88
2022-10-17T22:50:52.935Z,70.15
2022-10-17T22:53:38.520Z,70.15
2022-10-17T22:56:23.976Z,70.18
2022-10-17T22:59:09.385Z,70.21
2022-10-17T23:01:54.770Z,70.52
2022-10-17T23:04:41.304Z,70.31
2022-10-17T23:07:27.114Z,69.91
2022-10-17T23:10:12.383Z,69.78
2022-10-17T23:12:57.882Z,69.41
2022-10-17T23:15:43.610Z,69.51
2022-10-17T23:21:20.008Z,69.37
2022-10-17T23:24:05.584Z,69.64
2022-10-17T23:26:51.226Z,69.45
2022-10-17T23:29:36.744Z,69.52
2022-10-17T23:32:21.997Z,69.61
2022-10-17T23:35:08.176Z,69.58
2022-10-17T23:37:53.727Z,69.96
2022-10-17T23:40:39.027Z,69.92
2022-10-17T23:43:26.501Z,70.18
2022-10-17T23:46:12.548Z,70.13
2022-10-17T23:48:57.886Z,70.32
2022-10-17T23:51:43.150Z,70.51
2022-10-17T23:54:28.636Z,70.75
2022-10-17T23:57:14.192Z,70.86
2022-10-17T23:59:59.776Z,71.05
